createdAt,value
2023-04-08T00:02:13.161Z,101834.03
2023-04-08T00:04:42.715Z,101828.56
2023-04-08T00:07:11.270Z,101828.78
2023-04-08T00:09:39.145Z,101831.44
2023-04-08T00:12:07.437Z,101837.41
2023-04-08T00:14:35.326Z,101841.44
2023-04-08T00:17:03.262Z,101843.84
2023-04-08T00:19:31.198Z,101842.97
2023-04-08T00:22:00.472Z,101850.88
2023-04-08T00:24:28.352Z,101841.09
2023-04-08T00:26:56.475Z,101839.22
2023-04-08T00:29:24.433Z,101832.63
2023-04-08T00:31:52.706Z,101835.50
2023-04-08T00:34:20.960Z,101835.59
2023-04-08T00:36:48.957Z,101826.97
2023-04-08T00:39:18.326Z,101839.13
2023-04-08T00:41:46.337Z,101839.94
2023-04-08T00:44:14.180Z,101850.97
2023-04-08T00:46:42.392Z,101847.59
2023-04-08T00:49:10.532Z,101838.69
2023-04-08T00:51:38.406Z,101837.16
2023-04-08T00:54:06.502Z,101838.75
2023-04-08T00:56:36.108Z,101843.81
2023-04-08T00:59:05.431Z,101837.41
2023-04-08T01:01:39.097Z,101836.22
2023-04-08T01:04:14.208Z,101831.38
2023-04-08T01:06:50.598Z,101827.16
2023-04-08T01:09:20.629Z,101852.50
2023-04-08T01:11:52.754Z,101837.88
2023-04-08T01:14:24.523Z,101843.28
2023-04-08T01:16:55.586Z,101848.31
2023-04-08T01:19:30.352Z,101846.44
2023-04-08T01:22:15.927Z,101839.78
2023-04-08T01:24:46.684Z,101846.75
2023-04-08T01:27:17.959Z,101852.53
2023-04-08T01:29:48.598Z,101848.94
2023-04-08T01:32:17.950Z,101851.00
2023-04-08T01:34:46.661Z,101854.53
2023-04-08T01:37:16.524Z,101850.38
2023-04-08T01:39:45.702Z,101850.50
2023-04-08T01:42:14.702Z,101849.72
2023-04-08T01:44:44.619Z,101855.69
2023-04-08T01:47:14.715Z,101861.59
2023-04-08T01:49:44.012Z,101862.13
2023-04-08T01:52:13.189Z,101869.72
2023-04-08T01:54:41.104Z,101873.66
2023-04-08T01:57:13.257Z,101870.72
2023-04-08T01:59:43.490Z,101871.00
2023-04-08T02:02:12.404Z,101865.81
2023-04-08T02:04:40.560Z,101857.25
2023-04-08T02:07:09.513Z,101855.00
2023-04-08T02:09:37.405Z,101858.00
2023-04-08T02:12:05.795Z,101861.47
2023-04-08T02:14:33.743Z,101855.06
2023-04-08T02:17:08.597Z,101864.84
2023-04-08T02:19:44.352Z,101877.50
2023-04-08T02:22:18.264Z,101874.75
2023-04-08T02:24:48.086Z,101868.09
2023-04-08T02:27:18.778Z,101889.38
2023-04-08T02:29:48.323Z,101876.84
2023-04-08T02:32:18.430Z,101882.84
2023-04-08T02:34:47.619Z,101881.63
2023-04-08T02:37:15.536Z,101880.63
2023-04-08T02:39:43.432Z,101880.97
2023-04-08T02:42:12.509Z,101882.91
2023-04-08T02:44:40.404Z,101884.22
2023-04-08T02:47:08.341Z,101886.47
2023-04-08T02:49:37.854Z,101881.09
2023-04-08T02:52:06.261Z,101888.00
2023-04-08T02:54:34.144Z,101892.50
2023-04-08T02:57:03.168Z,101901.03
2023-04-08T02:59:31.034Z,101900.34
2023-04-08T03:01:59.262Z,101896.44
2023-04-08T03:04:27.230Z,101898.63
2023-04-08T03:06:56.441Z,101900.75
2023-04-08T03:09:24.345Z,101896.75
2023-04-08T03:11:54.776Z,101899.91
2023-04-08T03:14:22.805Z,101895.50
2023-04-08T03:16:50.971Z,101894.63
2023-04-08T03:19:18.918Z,101896.16
2023-04-08T03:21:46.801Z,101911.50
2023-04-08T03:24:16.027Z,101908.34
2023-04-08T03:26:43.953Z,101918.16
2023-04-08T03:29:11.802Z,101908.22
2023-04-08T03:31:39.761Z,101914.63
2023-04-08T03:34:07.657Z,101907.56
2023-04-08T03:36:35.627Z,101909.47
2023-04-08T03:39:03.882Z,101912.78
2023-04-08T03:41:33.104Z,101918.28
2023-04-08T03:44:01.176Z,101924.13
2023-04-08T03:46:29.153Z,101919.63
2023-04-08T03:48:57.045Z,101924.22
2023-04-08T03:51:24.938Z,101929.06
2023-04-08T03:53:52.754Z,101931.81
2023-04-08T03:56:20.721Z,101929.84
2023-04-08T03:58:50.064Z,101927.03
2023-04-08T04:01:18.388Z,101926.69
2023-04-08T04:03:46.590Z,101927.75
2023-04-08T04:06:14.517Z,101937.34
2023-04-08T04:08:42.336Z,101937.06
2023-04-08T04:11:10.163Z,101943.50
2023-04-08T04:13:38.001Z,101938.72
2023-04-08T04:16:07.670Z,101940.25
2023-04-08T04:18:35.668Z,101943.19
2023-04-08T04:21:07.288Z,101942.94
2023-04-08T04:23:35.359Z,101948.66
2023-04-08T04:26:03.198Z,101950.53
2023-04-08T04:28:30.977Z,101959.38
2023-04-08T04:30:58.827Z,101955.13
2023-04-08T04:33:28.246Z,101960.06
2023-04-08T04:35:56.276Z,101960.81
2023-04-08T04:38:24.236Z,101958.09
2023-04-08T04:40:52.132Z,101975.31
2023-04-08T04:43:19.972Z,101971.28
2023-04-08T04:45:47.845Z,101970.56
2023-04-08T04:48:15.713Z,101976.59
2023-04-08T04:50:44.923Z,101979.66
2023-04-08T04:53:12.771Z,101984.63
2023-04-08T04:55:41.015Z,101984.53
2023-04-08T04:58:08.882Z,101986.78
2023-04-08T05:00:36.800Z,101977.50
2023-04-08T05:03:04.800Z,101991.59
2023-04-08T05:05:32.765Z,101988.66
2023-04-08T05:08:01.940Z,101997.84
2023-04-08T05:10:29.906Z,101999.38
2023-04-08T05:12:57.781Z,101999.38
2023-04-08T05:15:25.696Z,102004.25
2023-04-08T05:17:53.596Z,102004.63
2023-04-08T05:20:21.432Z,102005.44
2023-04-08T05:22:50.673Z,102004.50
2023-04-08T05:25:20.172Z,102016.44
2023-04-08T05:27:48.041Z,102017.69
2023-04-08T05:30:16.274Z,102011.09
2023-04-08T05:32:44.141Z,101997.88
2023-04-08T05:35:12.056Z,102005.75
2023-04-08T05:37:39.939Z,102005.44
2023-04-08T05:40:08.801Z,102014.59
2023-04-08T05:42:38.204Z,102020.41
2023-04-08T05:45:07.155Z,102027.03
2023-04-08T05:47:35.167Z,102039.25
2023-04-08T05:50:03.122Z,102037.22
2023-04-08T05:52:31.165Z,102042.63
2023-04-08T05:54:59.007Z,102039.75
2023-04-08T05:57:26.879Z,102052.28
2023-04-08T05:59:56.085Z,102057.69
2023-04-08T06:02:24.082Z,102048.91
2023-04-08T06:04:52.117Z,102047.09
2023-04-08T06:07:19.956Z,102044.44
2023-04-08T06:09:47.778Z,102047.81
2023-04-08T06:12:15.659Z,102045.72
2023-04-08T06:14:43.514Z,102048.38
2023-04-08T06:17:12.765Z,102058.06
2023-04-08T06:19:40.827Z,102050.31
2023-04-08T06:22:08.665Z,102051.53
2023-04-08T06:24:36.489Z,102059.81
2023-04-08T06:27:04.489Z,102048.69
2023-04-08T06:29:33.724Z,102062.78
2023-04-08T06:32:01.674Z,102061.41
2023-04-08T06:34:30.924Z,102054.63
2023-04-08T06:36:58.851Z,102059.97
2023-04-08T06:39:26.702Z,102058.72
2023-04-08T06:41:54.752Z,102071.94
2023-04-08T06:44:40.993Z,102081.13
2023-04-08T06:47:08.848Z,102082.84
2023-04-08T06:49:38.037Z,102090.78
2023-04-08T06:52:06.732Z,102088.22
2023-04-08T06:54:34.693Z,102095.75
2023-04-08T06:57:02.567Z,102103.50
2023-04-08T06:59:30.476Z,102103.88
2023-04-08T07:01:58.472Z,102101.16
2023-04-08T07:04:26.732Z,102106.81
2023-04-08T07:06:56.085Z,102115.84
2023-04-08T07:09:23.955Z,102100.41
2023-04-08T07:11:51.798Z,102107.81
2023-04-08T07:14:20.520Z,102096.69
2023-04-08T07:16:48.377Z,102104.22
2023-04-08T07:19:16.249Z,102116.56
2023-04-08T07:21:44.129Z,102107.38
2023-04-08T07:24:13.391Z,102105.41
2023-04-08T07:26:41.277Z,102106.94
2023-04-08T07:29:09.139Z,102113.84
2023-04-08T07:31:37.018Z,102111.63
2023-04-08T07:34:05.019Z,102115.00
2023-04-08T07:36:33.033Z,102121.69
2023-04-08T07:39:00.883Z,102119.38
2023-04-08T07:41:30.121Z,102127.19
2023-04-08T07:43:58.033Z,102131.66
2023-04-08T07:46:25.964Z,102138.56
2023-04-08T07:48:53.780Z,102134.31
2023-04-08T07:51:21.614Z,102143.50
2023-04-08T07:53:49.600Z,102140.19
2023-04-08T07:56:18.647Z,102149.41
2023-04-08T07:58:49.023Z,102146.19
2023-04-08T08:01:19.981Z,102143.03
2023-04-08T08:03:48.507Z,102148.19
2023-04-08T08:06:17.089Z,102139.94
2023-04-08T08:08:45.835Z,102143.91
2023-04-08T08:11:13.870Z,102147.72
2023-04-08T08:13:41.755Z,102147.91
2023-04-08T08:16:12.101Z,102147.78
2023-04-08T08:18:41.092Z,102148.91
2023-04-08T08:21:09.644Z,102146.34
2023-04-08T08:23:38.523Z,102153.75
2023-04-08T08:26:09.741Z,102149.28
2023-04-08T08:28:38.179Z,102154.38
2023-04-08T08:31:06.589Z,102158.94
2023-04-08T08:33:36.071Z,102153.25
2023-04-08T08:36:05.219Z,102151.03
2023-04-08T08:38:33.171Z,102161.22
2023-04-08T08:41:02.029Z,102163.84
2023-04-08T08:43:30.268Z,102176.13
2023-04-08T08:45:58.177Z,102169.09
2023-04-08T08:48:26.256Z,102169.75
2023-04-08T08:50:55.576Z,102162.88
2023-04-08T08:53:29.888Z,102176.66
2023-04-08T08:56:13.767Z,102163.44
2023-04-08T08:58:45.825Z,102173.06
2023-04-08T09:01:37.458Z,102174.03
2023-04-08T09:04:11.236Z,102175.75
2023-04-08T09:06:41.281Z,102167.19
2023-04-08T09:09:11.289Z,102187.34
2023-04-08T09:11:40.892Z,102185.75
2023-04-08T09:14:20.037Z,102195.72
2023-04-08T09:16:48.147Z,102190.75
2023-04-08T09:19:16.319Z,102192.34
2023-04-08T09:21:46.068Z,102191.19
2023-04-08T09:24:29.359Z,102200.31
2023-04-08T09:26:57.366Z,102196.09
2023-04-08T09:29:28.139Z,102202.34
2023-04-08T09:32:00.392Z,102208.19
2023-04-08T09:34:30.872Z,102209.78
2023-04-08T09:37:00.339Z,102206.28
2023-04-08T09:39:28.363Z,102212.13
2023-04-08T09:42:02.025Z,102203.09
2023-04-08T09:44:31.251Z,102209.25
2023-04-08T09:47:07.317Z,102201.94
2023-04-08T09:49:39.324Z,102212.75
2023-04-08T09:52:12.899Z,102205.38
2023-04-08T09:54:46.615Z,102210.94
2023-04-08T09:57:18.885Z,102199.25
2023-04-08T09:59:53.785Z,102208.44
2023-04-08T10:02:30.559Z,102216.22
2023-04-08T10:05:01.317Z,102205.06
2023-04-08T10:07:31.244Z,102211.31
2023-04-08T10:09:59.737Z,102204.69
2023-04-08T10:12:27.839Z,102195.13
2023-04-08T10:15:24.923Z,102203.38
2023-04-08T10:17:54.326Z,102202.78
2023-04-08T10:20:45.126Z,102201.34
2023-04-08T10:23:15.607Z,102206.91
2023-04-08T10:25:45.187Z,102211.13
2023-04-08T10:28:26.300Z,102206.13
2023-04-08T10:30:55.458Z,102189.81
2023-04-08T10:33:32.689Z,102192.56
2023-04-08T10:36:02.846Z,102192.16
2023-04-08T10:38:32.808Z,102188.66
2023-04-08T10:41:00.681Z,102184.25
2023-04-08T10:43:34.059Z,102186.25
2023-04-08T10:46:01.866Z,102187.13
2023-04-08T10:48:30.084Z,102206.66
2023-04-08T10:50:59.465Z,102187.06
2023-04-08T10:53:29.161Z,102194.28
2023-04-08T10:56:05.307Z,102197.72
2023-04-08T10:58:33.262Z,102197.56
2023-04-08T11:01:05.977Z,102199.22
2023-04-08T11:03:34.803Z,102195.72
2023-04-08T11:06:03.751Z,102206.91
2023-04-08T11:08:32.841Z,102195.00
2023-04-08T11:11:02.493Z,102191.72
2023-04-08T11:13:30.813Z,102191.59
2023-04-08T11:16:00.841Z,102198.69
2023-04-08T11:18:29.375Z,102188.00
2023-04-08T11:20:59.635Z,102197.31
2023-04-08T11:23:28.271Z,102200.94
2023-04-08T11:25:56.693Z,102196.25
2023-04-08T11:28:26.384Z,102194.53
2023-04-08T11:30:55.736Z,102194.63
2023-04-08T11:33:27.084Z,102195.34
2023-04-08T11:35:55.464Z,102197.09
2023-04-08T11:38:24.681Z,102199.66
2023-04-08T11:40:56.026Z,102195.78
2023-04-08T11:43:26.243Z,102206.50
2023-04-08T11:45:54.257Z,102205.91
2023-04-08T11:48:22.107Z,102195.25
2023-04-08T11:51:03.549Z,102186.75
2023-04-08T11:53:31.504Z,102179.28
2023-04-08T11:55:59.396Z,102187.94
2023-04-08T11:58:28.628Z,102189.13
2023-04-08T12:00:56.541Z,102185.69
2023-04-08T12:03:24.529Z,102210.41
2023-04-08T12:05:52.468Z,102192.75
2023-04-08T12:08:20.622Z,102194.94
2023-04-08T12:10:48.429Z,102191.56
2023-04-08T12:13:16.273Z,102187.06
2023-04-08T12:15:45.886Z,102187.53
2023-04-08T12:18:13.764Z,102189.75
2023-04-08T12:20:41.580Z,102200.97
2023-04-08T12:23:09.401Z,102196.97
2023-04-08T12:25:37.213Z,102198.16
2023-04-08T12:28:05.081Z,102194.16
2023-04-08T12:30:32.995Z,102202.25
2023-04-08T12:33:02.453Z,102194.47
2023-04-08T12:35:31.165Z,102189.00
2023-04-08T12:37:59.028Z,102192.31
2023-04-08T12:40:27.049Z,102198.38
2023-04-08T12:42:54.957Z,102186.56
2023-04-08T12:45:22.931Z,102190.69
2023-04-08T12:47:51.642Z,102197.31
2023-04-08T12:50:20.933Z,102185.97
2023-04-08T12:52:48.751Z,102183.25
2023-04-08T12:55:16.717Z,102191.25
2023-04-08T12:57:44.563Z,102184.56
2023-04-08T13:00:13.770Z,102183.09
2023-04-08T13:02:42.646Z,102174.22
2023-04-08T13:05:11.056Z,102166.47
2023-04-08T13:07:40.500Z,102168.28
2023-04-08T13:10:09.632Z,102164.97
2023-04-08T13:12:40.066Z,102166.25
2023-04-08T13:15:09.558Z,102165.41
2023-04-08T13:17:37.395Z,102162.41
2023-04-08T13:20:06.658Z,102167.50
2023-04-08T13:22:34.609Z,102165.88
2023-04-08T13:25:06.456Z,102177.66
2023-04-08T13:27:34.374Z,102172.06
2023-04-08T13:30:02.209Z,102173.09
2023-04-08T13:32:30.181Z,102174.47
2023-04-08T13:34:58.021Z,102173.19
2023-04-08T13:37:25.865Z,102166.09
2023-04-08T13:39:54.008Z,102161.56
2023-04-08T13:42:23.496Z,102170.28
2023-04-08T13:44:51.444Z,102164.59
2023-04-08T13:47:19.359Z,102171.34
2023-04-08T13:49:47.209Z,102165.50
2023-04-08T13:52:15.744Z,102173.59
2023-04-08T13:54:43.598Z,102167.19
2023-04-08T13:57:11.539Z,102171.47
2023-04-08T13:59:43.246Z,102158.38
2023-04-08T14:02:12.991Z,102160.97
2023-04-08T14:04:41.027Z,102167.97
2023-04-08T14:07:09.200Z,102161.41
2023-04-08T14:09:37.092Z,102161.88
2023-04-08T14:12:05.134Z,102155.84
2023-04-08T14:14:33.083Z,102149.09
2023-04-08T14:17:02.308Z,102156.44
2023-04-08T14:19:30.397Z,102164.13
2023-04-08T14:21:58.268Z,102159.63
2023-04-08T14:24:26.089Z,102155.25
2023-04-08T14:26:53.972Z,102150.94
2023-04-08T14:29:21.904Z,102162.22
2023-04-08T14:31:49.788Z,102162.28
2023-04-08T14:34:18.942Z,102150.47
2023-04-08T14:36:47.102Z,102155.88
2023-04-08T14:39:14.970Z,102156.66
2023-04-08T14:41:42.784Z,102157.53
2023-04-08T14:46:38.726Z,102150.94
2023-04-08T14:49:07.244Z,102160.84
2023-04-08T14:51:37.820Z,102157.13
2023-04-08T14:54:05.814Z,102161.28
2023-04-08T14:56:33.778Z,102159.63
2023-04-08T14:59:01.672Z,102158.38
2023-04-08T15:01:32.201Z,102147.50
2023-04-08T15:04:00.679Z,102152.78
2023-04-08T15:06:28.713Z,102148.06
2023-04-08T15:08:58.518Z,102144.75
2023-04-08T15:11:26.678Z,102150.28
2023-04-08T15:13:54.513Z,102145.97
2023-04-08T15:16:22.383Z,102143.19
2023-04-08T15:18:50.556Z,102150.53
2023-04-08T15:21:18.639Z,102147.47
2023-04-08T15:23:46.593Z,102158.75
2023-04-08T15:26:15.858Z,102158.16
2023-04-08T15:28:43.715Z,102161.47
2023-04-08T15:31:11.681Z,102159.63
2023-04-08T15:33:41.431Z,102158.00
2023-04-08T15:36:09.363Z,102155.22
2023-04-08T15:38:37.288Z,102152.97
2023-04-08T15:41:05.404Z,102156.88
2023-04-08T15:43:34.683Z,102151.47
2023-04-08T15:46:02.486Z,102156.25
2023-04-08T15:48:30.399Z,102153.91
2023-04-08T15:50:58.315Z,102152.94
2023-04-08T15:53:26.501Z,102160.03
2023-04-08T15:55:54.408Z,102161.16
2023-04-08T15:58:22.205Z,102153.31
2023-04-08T16:00:52.120Z,102159.25
2023-04-08T16:03:20.114Z,102158.34
2023-04-08T16:05:48.103Z,102152.47
2023-04-08T16:08:16.268Z,102162.41
2023-04-08T16:10:44.239Z,102161.03
2023-04-08T16:13:12.114Z,102154.44
2023-04-08T16:15:39.934Z,102159.28
2023-04-08T16:18:09.212Z,102162.16
2023-04-08T16:20:38.819Z,102162.16
2023-04-08T16:23:06.699Z,102169.44
2023-04-08T16:25:34.535Z,102166.75
2023-04-08T16:28:02.418Z,102161.72
2023-04-08T16:30:30.380Z,102172.19
2023-04-08T16:32:58.277Z,102163.44
2023-04-08T16:35:27.479Z,102176.00
2023-04-08T16:37:55.468Z,102179.38
2023-04-08T16:40:23.389Z,102181.94
2023-04-08T16:42:51.244Z,102183.50
2023-04-08T16:45:19.341Z,102186.09
2023-04-08T16:47:47.260Z,102186.31
2023-04-08T16:50:15.188Z,102186.94
2023-04-08T16:52:49.371Z,102192.31
2023-04-08T16:55:17.625Z,102193.22
2023-04-08T16:57:45.826Z,102195.16
2023-04-08T17:00:16.007Z,102201.16
2023-04-08T17:02:44.967Z,102203.53
2023-04-08T17:05:13.049Z,102223.31
2023-04-08T17:07:41.013Z,102230.09
2023-04-08T17:10:11.504Z,102245.00
2023-04-08T17:12:39.401Z,102246.63
2023-04-08T17:15:08.352Z,102251.94
2023-04-08T17:17:36.213Z,102258.53
2023-04-08T17:20:04.153Z,102266.53
2023-04-08T17:22:32.156Z,102262.97
2023-04-08T17:25:00.040Z,102273.22
2023-04-08T17:27:29.238Z,102280.88
2023-04-08T17:29:57.909Z,102295.06
2023-04-08T17:32:25.883Z,102294.59
2023-04-08T17:34:54.127Z,102298.41
2023-04-08T17:37:22.428Z,102297.69
2023-04-08T17:39:51.534Z,102308.84
2023-04-08T17:42:22.394Z,102315.16
2023-04-08T17:44:52.804Z,102315.47
2023-04-08T17:47:21.056Z,102325.31
2023-04-08T17:49:48.968Z,102330.84
2023-04-08T17:52:16.979Z,102331.72
2023-04-08T17:54:44.860Z,102349.53
2023-04-08T17:57:12.929Z,102339.88
2023-04-08T17:59:40.824Z,102358.38
2023-04-08T18:02:10.235Z,102361.63
2023-04-08T18:04:38.174Z,102370.91
2023-04-08T18:07:06.012Z,102368.16
2023-04-08T18:09:34.012Z,102374.75
2023-04-08T18:12:01.881Z,102371.31
2023-04-08T18:14:30.985Z,102382.38
2023-04-08T18:16:58.880Z,102385.72
2023-04-08T18:19:28.119Z,102390.66
2023-04-08T18:21:56.239Z,102390.44
2023-04-08T18:24:24.145Z,102402.53
2023-04-08T18:27:01.481Z,102402.88
2023-04-08T18:29:31.697Z,102399.69
2023-04-08T18:31:59.602Z,102406.56
2023-04-08T18:34:28.861Z,102406.16
2023-04-08T18:36:56.811Z,102407.34
2023-04-08T18:39:24.657Z,102414.50
2023-04-08T18:41:52.484Z,102416.25
2023-04-08T18:44:20.403Z,102433.88
2023-04-08T18:46:48.252Z,102430.50
2023-04-08T18:49:16.423Z,102435.59
2023-04-08T18:51:55.437Z,102436.66
2023-04-08T18:54:29.488Z,102444.03
2023-04-08T18:56:57.606Z,102430.97
2023-04-08T18:59:27.763Z,102435.44
2023-04-08T19:01:55.851Z,102439.66
2023-04-08T19:04:23.915Z,102436.72
2023-04-08T19:06:53.132Z,102439.66
2023-04-08T19:09:20.953Z,102446.66
2023-04-08T19:11:49.342Z,102447.53
2023-04-08T19:14:17.341Z,102444.78
2023-04-08T19:16:45.994Z,102450.34
2023-04-08T19:19:13.882Z,102449.72
2023-04-08T19:21:41.784Z,102445.66
2023-04-08T19:24:11.104Z,102449.47
2023-04-08T19:26:38.972Z,102453.53
2023-04-08T19:29:06.823Z,102447.84
2023-04-08T19:31:34.783Z,102452.69
2023-04-08T19:34:02.635Z,102444.88
2023-04-08T19:36:30.751Z,102445.25
2023-04-08T19:38:58.602Z,102443.56
2023-04-08T19:41:27.796Z,102449.94
2023-04-08T19:43:55.597Z,102449.69
2023-04-08T19:46:23.470Z,102454.94
2023-04-08T19:48:51.346Z,102455.34
2023-04-08T19:51:22.506Z,102463.41
2023-04-08T19:53:51.051Z,102459.69
2023-04-08T19:56:19.832Z,102456.19
2023-04-08T19:58:49.427Z,102453.31
2023-04-08T20:01:19.220Z,102454.34
2023-04-08T20:03:50.511Z,102453.72
2023-04-08T20:06:18.707Z,102451.91
2023-04-08T20:08:46.916Z,102463.00
2023-04-08T20:11:14.792Z,102464.59
2023-04-08T20:13:43.136Z,102464.72
2023-04-08T20:16:12.402Z,102459.69
2023-04-08T20:18:40.276Z,102465.38
2023-04-08T20:21:10.181Z,102464.38
2023-04-08T20:23:43.911Z,102459.19
2023-04-08T20:26:12.633Z,102460.16
2023-04-08T20:28:41.267Z,102465.03
2023-04-08T20:31:09.240Z,102463.31
2023-04-08T20:33:43.572Z,102465.91
2023-04-08T20:36:12.368Z,102463.94
2023-04-08T20:38:40.796Z,102466.47
2023-04-08T20:41:08.693Z,102466.22
2023-04-08T20:43:36.501Z,102463.41
2023-04-08T20:46:04.549Z,102464.16
2023-04-08T20:48:33.247Z,102463.88
2023-04-08T20:51:02.849Z,102470.63
2023-04-08T20:53:31.519Z,102463.97
2023-04-08T20:55:59.651Z,102468.94
2023-04-08T20:58:27.533Z,102468.91
2023-04-08T21:00:55.723Z,102470.19
2023-04-08T21:03:23.707Z,102470.34
2023-04-08T21:05:52.742Z,102472.81
2023-04-08T21:08:22.028Z,102479.22
2023-04-08T21:10:49.847Z,102478.72
2023-04-08T21:13:17.699Z,102481.88
2023-04-08T21:15:45.567Z,102478.88
2023-04-08T21:18:13.435Z,102488.16
2023-04-08T21:20:41.813Z,102486.13
2023-04-08T21:23:09.723Z,102483.31
2023-04-08T21:25:39.028Z,102482.38
2023-04-08T21:28:06.881Z,102482.56
2023-04-08T21:30:34.722Z,102485.25
2023-04-08T21:33:02.534Z,102478.66
2023-04-08T21:35:30.451Z,102481.97
2023-04-08T21:37:58.526Z,102484.00
2023-04-08T21:40:26.585Z,102492.50
2023-04-08T21:42:55.823Z,102487.16
2023-04-08T21:45:24.802Z,102484.31
2023-04-08T21:47:53.221Z,102481.81
2023-04-08T21:50:21.302Z,102479.97
2023-04-08T21:52:49.250Z,102479.53
2023-04-08T21:55:17.176Z,102477.91
2023-04-08T21:57:45.058Z,102485.88
2023-04-08T22:00:15.223Z,102483.44
2023-04-08T22:02:46.647Z,102482.59
2023-04-08T22:05:15.526Z,102479.91
2023-04-08T22:07:43.500Z,102489.81
2023-04-08T22:10:12.507Z,102487.00
2023-04-08T22:12:40.550Z,102482.22
2023-04-08T22:15:09.746Z,102482.28
2023-04-08T22:17:39.112Z,102472.59
2023-04-08T22:20:08.045Z,102475.00
2023-04-08T22:22:36.476Z,102468.66
2023-04-08T22:25:04.407Z,102471.25
2023-04-08T22:27:33.037Z,102475.94
2023-04-08T22:30:00.903Z,102469.59
2023-04-08T22:32:28.813Z,102474.06
2023-04-08T22:34:58.148Z,102474.75
2023-04-08T22:37:26.062Z,102462.31
2023-04-08T22:39:53.976Z,102462.59
2023-04-08T22:42:21.884Z,102457.78
2023-04-08T22:44:49.774Z,102460.19
2023-04-08T22:47:18.220Z,102467.00
2023-04-08T22:49:46.174Z,102466.19
2023-04-08T22:52:15.574Z,102461.41
2023-04-08T22:54:43.460Z,102454.13
2023-04-08T22:57:11.356Z,102461.75
2023-04-08T22:59:39.227Z,102466.47
2023-04-08T23:02:07.290Z,102454.13
2023-04-08T23:04:35.423Z,102460.84
2023-04-08T23:07:03.365Z,102457.06
2023-04-08T23:09:32.625Z,102464.53
2023-04-08T23:12:01.334Z,102469.25
2023-04-08T23:14:29.246Z,102468.25
2023-04-08T23:16:57.103Z,102460.59
2023-04-08T23:19:24.987Z,102470.75
2023-04-08T23:21:52.856Z,102465.41
2023-04-08T23:24:20.790Z,102461.25
2023-04-08T23:26:50.148Z,102461.94
2023-04-08T23:29:18.047Z,102468.84
2023-04-08T23:31:45.905Z,102453.66
2023-04-08T23:34:13.775Z,102455.66
2023-04-08T23:36:41.648Z,102463.78
2023-04-08T23:39:09.563Z,102452.25
2023-04-08T23:41:37.450Z,102453.38
2023-04-08T23:44:07.097Z,102447.97
2023-04-08T23:46:35.006Z,102449.34
2023-04-08T23:49:02.992Z,102449.75
2023-04-08T23:51:31.360Z,102452.38
2023-04-08T23:53:59.257Z,102456.41
2023-04-08T23:56:27.550Z,102443.78
2023-04-08T23:58:55.490Z,102449.94
